Time;durP1;ratioP1;P1;durP2;ratioP2;P2;SDS_P1;SDS_P2;PMS_P1;PMS_P2;Temp;Humidity;BMP_temperature;BMP_pressure;BME280_temperature;BME280_humidity;BME280_pressure;Samples;Min_cycle;Max_cycle;Signal;HPM_P1;HPM_P2
2023/11/16 00:01:51;;;;;;;16.23;2.45;;;;;;;;;;5033777;28;20229;-69
2023/11/16 00:04:17;;;;;;;14.05;2.45;;;;;;;;;;5016830;28;20646;-68
2023/11/16 00:06:43;;;;;;;7.80;2.10;;;;;;;;;;5018837;28;20188;-69
2023/11/16 00:09:10;;;;;;;9.13;2.50;;;;;;;;;;5036175;28;20299;-68
2023/11/16 00:11:40;;;;;;;17.13;2.47;;;;;;;;;;5055712;28;20196;-68
2023/11/16 00:14:06;;;;;;;9.25;2.30;;;;;;;;;;5050427;28;20242;-68
2023/11/16 00:16:31;;;;;;;12.45;2.30;;;;;;;;;;5052673;28;20186;-68
2023/11/16 00:18:57;;;;;;;13.35;2.75;;;;;;;;;;5059431;28;20197;-68
2023/11/16 00:21:23;;;;;;;11.82;3.00;;;;;;;;;;5049783;28;20241;-70
2023/11/16 00:23:48;;;;;;;9.43;3.08;;;;;;;;;;5055394;28;20205;-70
2023/11/16 00:26:14;;;;;;;19.42;3.58;;;;;;;;;;5060756;28;20197;-69
2023/11/16 00:28:41;;;;;;;18.88;2.72;;;;;;;;;;5057964;28;20700;-69
2023/11/16 00:31:08;;;;;;;11.18;3.13;;;;;;;;;;5052407;28;20197;-70
2023/11/16 00:33:33;;;;;;;10.98;2.80;;;;;;;;;;5064489;28;20244;-70
2023/11/16 00:36:03;;;;;;;13.32;3.40;;;;;;;;;;5057373;28;20185;-70
2023/11/16 00:38:28;;;;;;;11.88;3.08;;;;;;;;;;5066552;28;20184;-70
2023/11/16 00:40:56;;;;;;;11.23;3.28;;;;;;;;;;5055504;28;20681;-70
2023/11/16 00:43:23;;;;;;;9.25;2.63;;;;;;;;;;5050536;28;20189;-71
2023/11/16 00:45:50;;;;;;;11.77;2.53;;;;;;;;;;5065001;28;20569;-70
2023/11/16 00:48:16;;;;;;;7.75;2.15;;;;;;;;;;5064801;28;20225;-71
2023/11/16 00:50:41;;;;;;;12.43;2.20;;;;;;;;;;5064864;28;20280;-70
2023/11/16 00:53:09;;;;;;;11.18;2.00;;;;;;;;;;5051345;28;20555;-71
2023/11/16 00:55:35;;;;;;;13.40;2.10;;;;;;;;;;5054790;28;20189;-70
2023/11/16 00:58:01;;;;;;;8.95;1.58;;;;;;;;;;5063051;28;20227;-70
2023/11/16 01:00:28;;;;;;;8.50;2.28;;;;;;;;;;5063552;28;20200;-69
2023/11/16 01:02:55;;;;;;;9.98;2.08;;;;;;;;;;5059098;28;20204;-69
2023/11/16 01:05:22;;;;;;;13.38;2.13;;;;;;;;;;5050109;28;20181;-70
2023/11/16 01:07:48;;;;;;;11.80;2.33;;;;;;;;;;5065753;28;20387;-70
2023/11/16 01:10:17;;;;;;;10.35;1.80;;;;;;;;;;5066726;28;20307;-69
2023/11/16 01:12:46;;;;;;;12.52;2.33;;;;;;;;;;5054127;28;20188;-69
2023/11/16 01:15:14;;;;;;;11.18;2.03;;;;;;;;;;5053113;28;20193;-69
2023/11/16 01:17:42;;;;;;;7.28;1.85;;;;;;;;;;5058709;28;20185;-69
2023/11/16 01:20:18;;;;;;;8.40;1.77;;;;;;;;;;5055773;28;20182;-69
2023/11/16 01:22:50;;;;;;;8.68;2.03;;;;;;;;;;5049065;28;20331;-69
2023/11/16 01:25:16;;;;;;;9.05;1.75;;;;;;;;;;5051179;28;20208;-69
2023/11/16 01:27:50;;;;;;;8.52;1.83;;;;;;;;;;5063568;28;20216;-69
2023/11/16 01:30:16;;;;;;;10.32;2.33;;;;;;;;;;5056719;28;20918;-69
2023/11/16 01:32:41;;;;;;;10.73;1.92;;;;;;;;;;5057867;28;20230;-69
2023/11/16 01:35:07;;;;;;;9.32;1.88;;;;;;;;;;5055503;28;20186;-69
2023/11/16 01:37:34;;;;;;;7.95;1.55;;;;;;;;;;5065173;28;20181;-69
2023/11/16 01:40:00;;;;;;;13.05;2.47;;;;;;;;;;5063145;28;20188;-69
2023/11/16 01:42:25;;;;;;;12.45;1.67;;;;;;;;;;5062411;28;20665;-69
2023/11/16 01:44:51;;;;;;;10.18;1.45;;;;;;;;;;5053807;28;20234;-69
2023/11/16 01:47:16;;;;;;;7.35;1.52;;;;;;;;;;5069133;28;20271;-69
2023/11/16 01:49:43;;;;;;;14.77;3.03;;;;;;;;;;5057767;28;20209;-69
2023/11/16 01:52:09;;;;;;;12.00;1.50;;;;;;;;;;5054817;28;20216;-69
2023/11/16 01:54:35;;;;;;;11.45;1.90;;;;;;;;;;5053626;28;20199;-69
2023/11/16 01:57:03;;;;;;;13.82;1.58;;;;;;;;;;5062385;28;20305;-69
2023/11/16 01:59:29;;;;;;;7.78;1.80;;;;;;;;;;5049633;28;20236;-69
2023/11/16 02:01:56;;;;;;;14.50;1.90;;;;;;;;;;5052334;28;20246;-69
2023/11/16 02:04:22;;;;;;;7.50;1.65;;;;;;;;;;5052942;28;20193;-69
2023/11/16 02:06:49;;;;;;;14.07;1.90;;;;;;;;;;5055717;28;20223;-69
2023/11/16 02:09:15;;;;;;;12.50;2.05;;;;;;;;;;5054705;28;20213;-69
2023/11/16 02:11:40;;;;;;;12.80;2.08;;;;;;;;;;5057507;28;20220;-69
2023/11/16 02:14:06;;;;;;;13.13;2.38;;;;;;;;;;5057625;28;20193;-69
2023/11/16 02:16:31;;;;;;;12.77;1.90;;;;;;;;;;5067839;28;20185;-69
2023/11/16 02:19:04;;;;;;;12.27;2.40;;;;;;;;;;5062616;28;20560;-69
2023/11/16 02:21:30;;;;;;;15.57;1.90;;;;;;;;;;5065487;28;20191;-69
2023/11/16 02:23:56;;;;;;;13.45;1.77;;;;;;;;;;5064239;28;20653;-69
2023/11/16 02:26:21;;;;;;;10.65;2.20;;;;;;;;;;5061013;28;20180;-69
2023/11/16 02:28:46;;;;;;;8.98;1.70;;;;;;;;;;5065331;28;20695;-69
2023/11/16 02:31:17;;;;;;;10.48;2.17;;;;;;;;;;5058365;28;20204;-69
2023/11/16 02:33:42;;;;;;;7.57;1.90;;;;;;;;;;5059021;28;20234;-68
2023/11/16 02:36:10;;;;;;;12.38;1.50;;;;;;;;;;5069209;28;20193;-68
2023/11/16 02:38:35;;;;;;;7.38;1.80;;;;;;;;;;5050006;28;20186;-67
2023/11/16 02:41:03;;;;;;;10.48;1.58;;;;;;;;;;5057611;28;20189;-68
2023/11/16 02:43:29;;;;;;;10.70;1.85;;;;;;;;;;5057167;28;20188;-68
2023/11/16 02:45:54;;;;;;;9.43;1.58;;;;;;;;;;5060969;28;20699;-68
2023/11/16 02:48:20;;;;;;;10.35;1.67;;;;;;;;;;5060363;28;20219;-68
2023/11/16 02:50:45;;;;;;;6.65;1.30;;;;;;;;;;5059100;28;20185;-68
2023/11/16 02:53:11;;;;;;;11.90;1.50;;;;;;;;;;5057816;28;20188;-68
2023/11/16 02:55:36;;;;;;;14.52;1.77;;;;;;;;;;5055243;28;20193;-69
2023/11/16 02:58:02;;;;;;;11.32;1.80;;;;;;;;;;5061309;28;20242;-69
2023/11/16 03:00:27;;;;;;;6.55;1.40;;;;;;;;;;5058433;28;20272;-68
2023/11/16 03:02:53;;;;;;;13.65;1.67;;;;;;;;;;5055483;28;20222;-67
2023/11/16 03:05:21;;;;;;;7.30;1.33;;;;;;;;;;5048844;28;20189;-67
2023/11/16 03:07:47;;;;;;;8.68;1.40;;;;;;;;;;5059141;28;20287;-67
2023/11/16 03:10:12;;;;;;;9.35;1.50;;;;;;;;;;5062250;28;20200;-68
2023/11/16 03:12:38;;;;;;;8.07;1.17;;;;;;;;;;5060325;28;20188;-68
2023/11/16 03:15:06;;;;;;;10.93;1.67;;;;;;;;;;5063603;28;20785;-68
2023/11/16 03:17:32;;;;;;;9.88;1.17;;;;;;;;;;5057551;28;20181;-68
2023/11/16 03:19:58;;;;;;;8.43;1.15;;;;;;;;;;5052231;28;20184;-68
2023/11/16 03:22:25;;;;;;;8.63;1.17;;;;;;;;;;5067731;28;20537;-68
2023/11/16 03:24:51;;;;;;;8.45;1.42;;;;;;;;;;5055479;28;20198;-68
2023/11/16 03:27:16;;;;;;;14.25;1.50;;;;;;;;;;5059063;28;20188;-68
2023/11/16 03:29:41;;;;;;;10.48;1.45;;;;;;;;;;5063503;28;20199;-68
2023/11/16 03:32:07;;;;;;;12.88;1.58;;;;;;;;;;5063337;28;20646;-68
2023/11/16 03:34:35;;;;;;;9.95;1.30;;;;;;;;;;5049298;28;20601;-68
2023/11/16 03:37:02;;;;;;;8.00;1.00;;;;;;;;;;5056833;28;20198;-68
2023/11/16 03:39:28;;;;;;;10.30;1.35;;;;;;;;;;5061674;28;20271;-68
2023/11/16 03:41:53;;;;;;;15.02;1.58;;;;;;;;;;5050463;28;20275;-68
2023/11/16 03:44:19;;;;;;;4.68;0.98;;;;;;;;;;5060623;28;20192;-68
2023/11/16 03:46:44;;;;;;;7.45;1.42;;;;;;;;;;5047423;28;20254;-68
2023/11/16 03:49:10;;;;;;;7.43;1.00;;;;;;;;;;5049338;28;20208;-68
2023/11/16 03:51:35;;;;;;;7.30;0.98;;;;;;;;;;5060959;28;20263;-69
2023/11/16 03:54:01;;;;;;;14.52;1.58;;;;;;;;;;5048747;28;20669;-70
2023/11/16 03:56:27;;;;;;;10.13;1.35;;;;;;;;;;5051824;28;20200;-68
2023/11/16 03:58:52;;;;;;;12.82;1.50;;;;;;;;;;5062304;28;20220;-68
2023/11/16 04:01:17;;;;;;;7.57;0.85;;;;;;;;;;5033086;28;20670;-69
2023/11/16 04:03:44;;;;;;;6.93;1.00;;;;;;;;;;5051434;28;20193;-69
2023/11/16 04:06:19;;;;;;;10.80;1.42;;;;;;;;;;5056460;28;20181;-69
2023/11/16 04:08:46;;;;;;;6.60;1.17;;;;;;;;;;5048015;28;20548;-68
2023/11/16 04:11:11;;;;;;;10.20;1.10;;;;;;;;;;5060509;28;20193;-68
2023/11/16 04:13:36;;;;;;;7.10;0.85;;;;;;;;;;5050965;28;20204;-69
2023/11/16 04:16:03;;;;;;;8.38;0.93;;;;;;;;;;5057624;28;20238;-68
2023/11/16 04:18:30;;;;;;;6.20;1.35;;;;;;;;;;5062403;28;20205;-68
2023/11/16 04:20:55;;;;;;;6.70;0.77;;;;;;;;;;5062349;28;20189;-68
2023/11/16 04:23:21;;;;;;;8.38;0.95;;;;;;;;;;5049234;28;20185;-68
2023/11/16 04:25:46;;;;;;;10.70;0.93;;;;;;;;;;5058776;28;20247;-68
2023/11/16 04:28:13;;;;;;;8.68;1.08;;;;;;;;;;5057955;28;20209;-68
2023/11/16 04:30:38;;;;;;;7.72;0.98;;;;;;;;;;5068453;28;20263;-68
2023/11/16 04:33:04;;;;;;;6.05;1.10;;;;;;;;;;5065421;28;20285;-68
2023/11/16 04:35:29;;;;;;;8.30;1.00;;;;;;;;;;5051511;28;20186;-68
2023/11/16 04:37:55;;;;;;;8.27;1.00;;;;;;;;;;5062864;28;20191;-68
2023/11/16 04:40:22;;;;;;;8.63;1.33;;;;;;;;;;5061745;28;20663;-68
2023/11/16 04:42:48;;;;;;;5.35;0.90;;;;;;;;;;5057565;28;20973;-67
2023/11/16 04:45:14;;;;;;;15.88;1.17;;;;;;;;;;5057110;28;20253;-68
2023/11/16 04:47:43;;;;;;;7.80;0.85;;;;;;;;;;5070656;28;20580;-67
2023/11/16 04:50:10;;;;;;;10.35;1.20;;;;;;;;;;5066236;28;20251;-68
2023/11/16 04:52:39;;;;;;;8.60;0.77;;;;;;;;;;5060473;28;20676;-67
2023/11/16 04:55:05;;;;;;;8.17;0.70;;;;;;;;;;5060805;28;20552;-68
2023/11/16 04:57:30;;;;;;;6.68;1.10;;;;;;;;;;5057792;28;20236;-68
2023/11/16 04:59:56;;;;;;;5.90;0.97;;;;;;;;;;5051025;28;20228;-68
2023/11/16 05:02:21;;;;;;;7.93;1.10;;;;;;;;;;5055773;28;20194;-68
2023/11/16 05:04:47;;;;;;;12.90;1.50;;;;;;;;;;5063237;28;20280;-68
2023/11/16 05:07:13;;;;;;;10.07;0.90;;;;;;;;;;5057167;28;20273;-68
2023/11/16 05:09:38;;;;;;;13.87;1.47;;;;;;;;;;5050168;28;20717;-68
2023/11/16 05:12:08;;;;;;;11.07;1.07;;;;;;;;;;5057936;28;20217;-68
2023/11/16 05:14:34;;;;;;;6.30;0.67;;;;;;;;;;5055906;28;20214;-68
2023/11/16 05:16:59;;;;;;;7.07;1.10;;;;;;;;;;5057247;28;20572;-67
2023/11/16 05:19:25;;;;;;;8.80;0.90;;;;;;;;;;5062431;28;20177;-68
2023/11/16 05:21:51;;;;;;;10.97;0.90;;;;;;;;;;5078371;28;20600;-67
2023/11/16 05:24:16;;;;;;;11.87;0.77;;;;;;;;;;5065777;28;20695;-68
2023/11/16 05:26:42;;;;;;;5.33;0.97;;;;;;;;;;5058720;28;20204;-69
2023/11/16 05:29:07;;;;;;;11.05;1.00;;;;;;;;;;5062113;28;20204;-68
2023/11/16 05:31:33;;;;;;;8.97;1.03;;;;;;;;;;5056218;28;20628;-68
2023/11/16 05:33:58;;;;;;;8.47;1.10;;;;;;;;;;5059991;28;20286;-68
2023/11/16 05:36:29;;;;;;;10.97;1.20;;;;;;;;;;5064207;28;20192;-68
2023/11/16 05:38:55;;;;;;;12.90;1.40;;;;;;;;;;5059903;28;20177;-68
2023/11/16 05:41:22;;;;;;;10.70;1.30;;;;;;;;;;5052372;28;20189;-68
2023/11/16 05:43:48;;;;;;;10.80;1.40;;;;;;;;;;5056876;28;20529;-68
2023/11/16 05:46:14;;;;;;;7.33;1.70;;;;;;;;;;5057674;28;20197;-68
2023/11/16 05:48:39;;;;;;;12.37;2.50;;;;;;;;;;5053205;28;20217;-68
2023/11/16 05:51:05;;;;;;;10.07;1.30;;;;;;;;;;5058242;28;20199;-68
2023/11/16 05:53:31;;;;;;;17.03;1.70;;;;;;;;;;5063584;28;20317;-69
2023/11/16 05:55:57;;;;;;;9.67;1.30;;;;;;;;;;5060705;28;20309;-69
2023/11/16 05:58:23;;;;;;;8.97;1.60;;;;;;;;;;5055581;28;20274;-69
2023/11/16 06:00:48;;;;;;;10.63;1.43;;;;;;;;;;5062713;28;20528;-69
2023/11/16 06:03:14;;;;;;;5.97;1.60;;;;;;;;;;5056741;28;20185;-68
2023/11/16 06:05:41;;;;;;;6.80;1.30;;;;;;;;;;5048929;28;20201;-68
2023/11/16 06:08:07;;;;;;;12.23;1.63;;;;;;;;;;5061416;28;20219;-68
2023/11/16 06:10:33;;;;;;;9.33;1.93;;;;;;;;;;5061490;28;20182;-68
2023/11/16 06:12:59;;;;;;;11.33;1.87;;;;;;;;;;5052830;28;20245;-69
2023/11/16 06:15:25;;;;;;;6.07;1.70;;;;;;;;;;5056712;28;20237;-69
2023/11/16 06:17:54;;;;;;;8.03;1.70;;;;;;;;;;5060014;28;20174;-69
2023/11/16 06:20:20;;;;;;;10.37;1.97;;;;;;;;;;5060280;28;20196;-69
2023/11/16 06:22:46;;;;;;;12.27;1.87;;;;;;;;;;5057096;28;20182;-68
2023/11/16 06:25:11;;;;;;;8.80;2.10;;;;;;;;;;5062254;28;20680;-68
2023/11/16 06:27:38;;;;;;;11.33;1.60;;;;;;;;;;5050428;28;20188;-68
2023/11/16 06:30:06;;;;;;;8.23;1.80;;;;;;;;;;5058029;28;20564;-68
2023/11/16 06:32:32;;;;;;;6.13;1.70;;;;;;;;;;5066955;28;20295;-68
2023/11/16 06:34:58;;;;;;;12.10;2.23;;;;;;;;;;5051971;28;20281;-68
2023/11/16 06:37:23;;;;;;;7.43;1.90;;;;;;;;;;5059809;28;20911;-68
2023/11/16 06:39:49;;;;;;;9.37;1.50;;;;;;;;;;5055739;28;20563;-67
2023/11/16 06:42:14;;;;;;;7.82;1.48;;;;;;;;;;5058582;28;20270;-68
2023/11/16 06:44:40;;;;;;;6.13;1.87;;;;;;;;;;5061000;28;20181;-68
2023/11/16 06:47:06;;;;;;;5.67;2.07;;;;;;;;;;5059701;28;20292;-68
2023/11/16 06:49:32;;;;;;;8.63;1.57;;;;;;;;;;5066775;28;20223;-68
2023/11/16 06:51:57;;;;;;;8.60;1.53;;;;;;;;;;5064891;28;20188;-68
2023/11/16 06:54:23;;;;;;;9.47;1.63;;;;;;;;;;5053995;28;20188;-68
2023/11/16 06:56:49;;;;;;;4.87;1.70;;;;;;;;;;5054871;28;20267;-68
2023/11/16 06:59:20;;;;;;;8.40;1.77;;;;;;;;;;5050368;28;20266;-68
2023/11/16 07:01:47;;;;;;;6.80;1.80;;;;;;;;;;5049931;28;20181;-68
2023/11/16 07:04:15;;;;;;;10.80;2.43;;;;;;;;;;5053631;28;20184;-69
2023/11/16 07:06:40;;;;;;;10.50;2.10;;;;;;;;;;5049811;28;20265;-68
2023/11/16 07:09:06;;;;;;;7.37;2.00;;;;;;;;;;5057510;28;20312;-69
2023/11/16 07:11:31;;;;;;;10.90;2.37;;;;;;;;;;5048284;28;20258;-69
2023/11/16 07:13:57;;;;;;;11.57;2.20;;;;;;;;;;5066600;28;20268;-69
2023/11/16 07:16:22;;;;;;;9.00;2.10;;;;;;;;;;5066768;28;20706;-69
2023/11/16 07:18:48;;;;;;;10.73;3.00;;;;;;;;;;5058980;28;20178;-69
2023/11/16 07:21:14;;;;;;;14.67;2.87;;;;;;;;;;5062407;28;20455;-69
2023/11/16 07:23:41;;;;;;;37.43;4.97;;;;;;;;;;5053934;28;20204;-69
2023/11/16 07:26:08;;;;;;;50.43;6.23;;;;;;;;;;5058777;28;20275;-69
2023/11/16 07:28:35;;;;;;;72.40;6.37;;;;;;;;;;5045121;28;20255;-69
2023/11/16 07:31:01;;;;;;;277.35;14.88;;;;;;;;;;5052736;28;20196;-69
2023/11/16 07:33:27;;;;;;;142.18;8.95;;;;;;;;;;5053268;28;20516;-69
2023/11/16 07:35:52;;;;;;;105.90;8.50;;;;;;;;;;5057257;28;20191;-69
2023/11/16 07:38:18;;;;;;;105.63;7.70;;;;;;;;;;5053090;28;20427;-69
2023/11/16 07:40:43;;;;;;;54.20;7.85;;;;;;;;;;5050522;28;20241;-68
2023/11/16 07:43:09;;;;;;;124.18;8.60;;;;;;;;;;5048970;28;20577;-68
2023/11/16 07:45:34;;;;;;;88.45;8.20;;;;;;;;;;5050260;28;20176;-68
2023/11/16 07:48:03;;;;;;;89.72;7.35;;;;;;;;;;5055716;28;20373;-69
2023/11/16 07:50:31;;;;;;;117.63;8.52;;;;;;;;;;5055837;28;20197;-68
2023/11/16 07:52:59;;;;;;;61.85;7.57;;;;;;;;;;5056441;28;20367;-68
2023/11/16 07:55:25;;;;;;;51.92;7.63;;;;;;;;;;5058593;28;20180;-68
2023/11/16 07:57:52;;;;;;;56.38;7.22;;;;;;;;;;5059513;28;20705;-68
2023/11/16 08:00:26;;;;;;;39.30;6.90;;;;;;;;;;5063523;28;20191;-68
2023/11/16 08:05:45;;;;;;;59.15;7.97;;;;;;;;;;5060371;28;20727;-68
2023/11/16 08:08:15;;;;;;;102.63;9.30;;;;;;;;;;5057908;28;20216;-68
2023/11/16 08:10:42;;;;;;;29.75;6.13;;;;;;;;;;5061101;28;20192;-68
2023/11/16 08:13:10;;;;;;;47.00;7.07;;;;;;;;;;5053937;28;20192;-69
2023/11/16 08:15:36;;;;;;;50.60;6.57;;;;;;;;;;5056830;28;20246;-68
2023/11/16 08:18:01;;;;;;;70.50;7.97;;;;;;;;;;5060266;28;20177;-68
2023/11/16 08:20:28;;;;;;;68.15;6.90;;;;;;;;;;5052024;28;20197;-68
2023/11/16 08:22:56;;;;;;;58.33;7.70;;;;;;;;;;5058731;28;20576;-69
2023/11/16 08:25:23;;;;;;;27.50;6.25;;;;;;;;;;5061057;28;20192;-68
2023/11/16 08:27:51;;;;;;;59.22;7.60;;;;;;;;;;5055335;28;20216;-68
2023/11/16 08:30:18;;;;;;;62.42;7.18;;;;;;;;;;5058560;28;20182;-68
2023/11/16 08:32:44;;;;;;;61.60;7.07;;;;;;;;;;5051134;28;20326;-68
2023/11/16 08:35:10;;;;;;;68.57;7.55;;;;;;;;;;5062048;28;20228;-68
2023/11/16 08:37:37;;;;;;;65.43;7.22;;;;;;;;;;5055069;28;20665;-68
2023/11/16 10:28:27;;;;;;;10.40;4.55;;;;;;;;;;5085740;27;21074;-68
2023/11/16 10:30:57;;;;;;;6.25;3.97;;;;;;;;;;5075932;28;20224;-69
2023/11/16 10:33:23;;;;;;;19.30;3.40;;;;;;;;;;5082351;28;20184;-69
2023/11/16 10:35:51;;;;;;;7.18;3.60;;;;;;;;;;5064294;28;20249;-68
2023/11/16 10:38:23;;;;;;;11.45;4.20;;;;;;;;;;5083950;28;20189;-69
2023/11/16 10:40:52;;;;;;;19.02;4.95;;;;;;;;;;5085285;28;20238;-68
2023/11/16 10:43:22;;;;;;;18.80;4.95;;;;;;;;;;5085926;28;20220;-68
2023/11/16 11:12:05;;;;;;;8.60;3.78;;;;;;;;;;4676754;28;10000305;-68
2023/11/16 11:14:31;;;;;;;11.35;5.43;;;;;;;;;;5011732;28;20193;-68
2023/11/16 11:17:05;;;;;;;11.18;6.30;;;;;;;;;;5048199;28;20212;-68
2023/11/16 11:19:31;;;;;;;12.90;6.18;;;;;;;;;;5030923;28;20433;-68
2023/11/16 11:22:00;;;;;;;18.00;6.10;;;;;;;;;;5037385;28;20272;-68
2023/11/16 11:24:25;;;;;;;11.30;5.57;;;;;;;;;;5038889;28;20640;-68
2023/11/16 11:26:50;;;;;;;8.93;5.72;;;;;;;;;;5043137;28;20193;-68
2023/11/16 11:29:23;;;;;;;15.73;6.20;;;;;;;;;;5056303;28;20192;-69
2023/11/16 11:32:00;;;;;;;10.10;5.40;;;;;;;;;;5044690;28;20636;-69
2023/11/16 11:34:32;;;;;;;12.40;4.40;;;;;;;;;;5040852;28;20197;-68
2023/11/16 11:36:58;;;;;;;8.48;4.50;;;;;;;;;;5040143;28;20192;-69
2023/11/16 11:39:34;;;;;;;8.80;4.80;;;;;;;;;;5047013;28;20265;-69
2023/11/16 11:42:00;;;;;;;5.57;3.92;;;;;;;;;;5070732;28;20200;-69
2023/11/16 11:44:28;;;;;;;8.45;4.60;;;;;;;;;;5039603;28;20193;-69
2023/11/16 11:46:56;;;;;;;6.90;4.65;;;;;;;;;;5065926;28;20193;-69
2023/11/16 11:49:21;;;;;;;8.07;4.40;;;;;;;;;;5032661;28;20217;-69
2023/11/16 11:51:47;;;;;;;7.35;4.15;;;;;;;;;;5038785;28;20322;-69
2023/11/16 11:54:13;;;;;;;6.38;4.05;;;;;;;;;;5038347;28;20196;-68
2023/11/16 11:56:46;;;;;;;9.20;3.78;;;;;;;;;;5030300;28;20217;-69
2023/11/16 11:59:13;;;;;;;6.82;3.40;;;;;;;;;;5045252;28;20263;-69
2023/11/16 12:01:39;;;;;;;7.40;4.20;;;;;;;;;;5043477;28;20644;-68
2023/11/16 12:04:07;;;;;;;12.15;4.30;;;;;;;;;;5033691;28;20193;-69
2023/11/16 12:06:32;;;;;;;5.40;3.95;;;;;;;;;;5035854;28;20208;-69
2023/11/16 12:08:57;;;;;;;10.13;4.05;;;;;;;;;;5035901;28;20185;-69
2023/11/16 12:11:25;;;;;;;7.93;3.88;;;;;;;;;;5038008;28;20231;-68
2023/11/16 12:13:54;;;;;;;7.75;4.10;;;;;;;;;;5048349;28;20251;-68
2023/11/16 12:16:23;;;;;;;7.00;4.00;;;;;;;;;;5023511;28;20194;-69
2023/11/16 12:18:51;;;;;;;8.52;4.15;;;;;;;;;;5031994;28;20269;-69
2023/11/16 12:21:18;;;;;;;6.45;4.00;;;;;;;;;;5052054;28;20281;-68
2023/11/16 12:23:51;;;;;;;9.82;4.57;;;;;;;;;;5014499;28;20231;-69
2023/11/16 12:26:28;;;;;;;10.88;5.03;;;;;;;;;;5012704;28;20194;-69
2023/11/16 12:28:55;;;;;;;6.43;4.38;;;;;;;;;;5020147;28;20243;-69
2023/11/16 12:31:21;;;;;;;12.35;4.60;;;;;;;;;;5016765;28;20680;-69
2023/11/16 12:33:48;;;;;;;7.82;4.70;;;;;;;;;;5029777;28;20190;-69
2023/11/16 12:36:20;;;;;;;7.45;4.65;;;;;;;;;;5031814;28;20214;-69
2023/11/16 12:38:48;;;;;;;7.15;4.45;;;;;;;;;;5022633;28;20194;-68
2023/11/16 12:41:14;;;;;;;8.05;4.30;;;;;;;;;;5029416;28;20282;-70
2023/11/16 12:43:39;;;;;;;6.90;4.32;;;;;;;;;;5041637;28;20186;-69
2023/11/16 12:46:05;;;;;;;11.52;4.72;;;;;;;;;;5031456;28;20240;-69
2023/11/16 12:48:30;;;;;;;6.68;3.90;;;;;;;;;;5029164;28;20858;-68
2023/11/16 12:50:56;;;;;;;8.25;4.47;;;;;;;;;;5021700;28;20290;-68
2023/11/16 12:53:21;;;;;;;7.55;4.32;;;;;;;;;;5037246;28;20212;-68
2023/11/16 12:55:47;;;;;;;8.23;4.57;;;;;;;;;;5024061;28;20202;-68
2023/11/16 12:58:12;;;;;;;7.78;4.88;;;;;;;;;;5029390;28;20205;-69
2023/11/16 13:00:40;;;;;;;10.20;4.95;;;;;;;;;;5019155;28;20628;-69
2023/11/16 13:03:06;;;;;;;8.35;4.95;;;;;;;;;;5025629;28;20274;-68
2023/11/16 13:05:31;;;;;;;9.40;5.20;;;;;;;;;;5035099;28;20282;-69
2023/11/16 13:07:57;;;;;;;8.23;4.15;;;;;;;;;;5033249;28;20201;-69
2023/11/16 13:10:24;;;;;;;9.07;4.70;;;;;;;;;;5026231;28;20280;-69
2023/11/16 13:12:50;;;;;;;9.65;4.70;;;;;;;;;;5028442;28;20186;-69
2023/11/16 13:15:15;;;;;;;7.35;4.93;;;;;;;;;;5020963;28;20198;-69
2023/11/16 13:17:41;;;;;;;12.13;4.95;;;;;;;;;;5022410;28;20566;-69
2023/11/16 13:20:08;;;;;;;13.13;5.47;;;;;;;;;;5025089;28;20197;-70
2023/11/16 13:22:34;;;;;;;10.00;4.95;;;;;;;;;;5033935;28;20186;-69
2023/11/16 13:25:00;;;;;;;7.82;5.05;;;;;;;;;;5026573;28;20200;-69
2023/11/16 13:27:26;;;;;;;9.98;5.05;;;;;;;;;;5016828;28;20653;-69
2023/11/16 13:29:51;;;;;;;9.55;5.00;;;;;;;;;;5021934;28;20989;-69
2023/11/16 13:32:17;;;;;;;7.38;5.15;;;;;;;;;;5034857;28;20198;-69
2023/11/16 13:34:43;;;;;;;14.07;5.53;;;;;;;;;;5024965;28;20652;-69
2023/11/16 13:37:11;;;;;;;7.05;5.10;;;;;;;;;;5027944;28;20634;-69
2023/11/16 13:39:37;;;;;;;12.05;5.20;;;;;;;;;;5020369;28;20658;-69
2023/11/16 13:42:02;;;;;;;11.20;5.22;;;;;;;;;;5031447;28;20265;-69
2023/11/16 13:44:28;;;;;;;11.68;5.78;;;;;;;;;;5025087;28;20565;-69
2023/11/16 13:46:53;;;;;;;12.60;5.50;;;;;;;;;;5028074;28;20193;-69
2023/11/16 13:49:18;;;;;;;13.18;6.03;;;;;;;;;;5031618;28;20186;-69
2023/11/16 13:51:44;;;;;;;9.82;6.13;;;;;;;;;;5028640;28;20271;-69
2023/11/16 13:54:10;;;;;;;11.32;6.05;;;;;;;;;;5029610;28;20609;-69
2023/11/16 13:56:35;;;;;;;9.48;5.78;;;;;;;;;;5033962;28;20269;-69
2023/11/16 13:59:01;;;;;;;15.30;6.55;;;;;;;;;;5033185;28;20190;-68
2023/11/16 14:01:27;;;;;;;13.73;6.40;;;;;;;;;;5032889;28;20289;-68
2023/11/16 14:03:55;;;;;;;10.48;6.20;;;;;;;;;;5031342;28;20198;-69
2023/11/16 14:06:21;;;;;;;9.20;6.15;;;;;;;;;;5029629;28;20268;-69
2023/11/16 14:08:47;;;;;;;12.88;6.55;;;;;;;;;;5031206;28;20189;-68
2023/11/16 14:11:12;;;;;;;11.15;6.60;;;;;;;;;;5030707;28;20261;-68
2023/11/16 14:13:42;;;;;;;13.05;6.30;;;;;;;;;;5031510;28;20232;-68
2023/11/16 14:16:09;;;;;;;14.43;7.22;;;;;;;;;;5030698;28;20194;-68
2023/11/16 14:18:35;;;;;;;9.90;7.00;;;;;;;;;;5030169;28;20209;-68
2023/11/16 14:21:05;;;;;;;9.57;6.90;;;;;;;;;;5034248;28;20188;-68
2023/11/16 14:23:31;;;;;;;10.35;6.90;;;;;;;;;;5035589;28;20243;-68
2023/11/16 14:25:56;;;;;;;10.43;6.78;;;;;;;;;;5033404;28;20198;-68
2023/11/16 14:28:22;;;;;;;9.80;6.75;;;;;;;;;;5015128;28;20662;-68
2023/11/16 14:30:47;;;;;;;9.38;6.75;;;;;;;;;;5032854;28;20228;-68
2023/11/16 14:33:13;;;;;;;12.25;6.20;;;;;;;;;;5033472;28;20616;-68
2023/11/16 14:35:39;;;;;;;10.40;6.03;;;;;;;;;;5028952;28;20189;-67
2023/11/16 14:38:04;;;;;;;9.77;6.18;;;;;;;;;;5030365;28;20257;-67
2023/11/16 14:40:29;;;;;;;9.95;5.95;;;;;;;;;;5033783;28;20202;-67
2023/11/16 14:42:55;;;;;;;11.82;6.18;;;;;;;;;;5024745;28;20629;-67
2023/11/16 14:45:25;;;;;;;9.85;6.40;;;;;;;;;;5025739;28;20727;-68
2023/11/16 14:47:51;;;;;;;10.98;5.95;;;;;;;;;;5023757;28;20268;-67
2023/11/16 14:50:18;;;;;;;12.10;6.60;;;;;;;;;;5026249;28;20302;-68
2023/11/16 14:52:43;;;;;;;17.48;6.55;;;;;;;;;;5024603;28;20771;-67
2023/11/16 14:55:09;;;;;;;11.02;6.20;;;;;;;;;;5022769;28;20182;-68
2023/11/16 14:57:37;;;;;;;10.88;5.90;;;;;;;;;;5023346;28;20742;-68
2023/11/16 15:00:03;;;;;;;13.45;6.15;;;;;;;;;;5023100;28;20194;-68
2023/11/16 15:02:28;;;;;;;11.48;5.90;;;;;;;;;;5022629;28;20197;-68
2023/11/16 15:04:54;;;;;;;11.95;5.50;;;;;;;;;;5022029;28;20190;-68
2023/11/16 15:07:19;;;;;;;12.70;5.65;;;;;;;;;;5024217;28;20190;-68
2023/11/16 15:09:44;;;;;;;9.27;6.00;;;;;;;;;;5019836;28;20201;-68
2023/11/16 15:12:10;;;;;;;13.80;6.40;;;;;;;;;;5027109;28;20656;-68
2023/11/16 15:14:35;;;;;;;8.30;5.57;;;;;;;;;;5034059;28;20229;-68
2023/11/16 15:17:01;;;;;;;9.65;6.13;;;;;;;;;;5029925;28;20198;-68
2023/11/16 15:19:31;;;;;;;11.02;5.80;;;;;;;;;;5030609;28;20572;-68
2023/11/16 15:21:56;;;;;;;8.77;5.60;;;;;;;;;;5033016;28;20537;-68
2023/11/16 15:24:22;;;;;;;9.60;6.05;;;;;;;;;;5035539;28;20276;-69
2023/11/16 15:26:47;;;;;;;11.13;5.88;;;;;;;;;;5024923;28;20202;-68
2023/11/16 15:29:13;;;;;;;12.77;6.50;;;;;;;;;;5025454;28;20187;-68
2023/11/16 15:31:39;;;;;;;9.07;6.35;;;;;;;;;;5029719;28;20695;-68
2023/11/16 15:34:05;;;;;;;9.43;5.93;;;;;;;;;;5033047;28;20224;-68
2023/11/16 15:36:31;;;;;;;9.88;6.65;;;;;;;;;;5025850;28;20189;-68
2023/11/16 15:39:00;;;;;;;14.43;6.65;;;;;;;;;;5028668;28;20194;-69
2023/11/16 15:41:26;;;;;;;12.82;6.10;;;;;;;;;;5034452;28;20208;-68
2023/11/16 15:43:51;;;;;;;9.57;6.05;;;;;;;;;;5033563;28;20272;-68
2023/11/16 15:46:16;;;;;;;14.32;6.50;;;;;;;;;;5033499;28;20202;-68
2023/11/16 15:48:42;;;;;;;12.68;6.72;;;;;;;;;;5023311;28;20283;-68
2023/11/16 15:51:08;;;;;;;14.23;6.40;;;;;;;;;;5021048;28;20213;-68
2023/11/16 15:53:34;;;;;;;11.27;6.40;;;;;;;;;;5021055;28;20190;-68
2023/11/16 15:56:04;;;;;;;11.32;6.28;;;;;;;;;;5023094;28;20197;-68
2023/11/16 15:58:30;;;;;;;13.75;6.28;;;;;;;;;;5025824;28;20182;-68
2023/11/16 16:00:58;;;;;;;11.70;6.13;;;;;;;;;;5025874;28;20183;-68
2023/11/16 16:03:25;;;;;;;9.27;5.90;;;;;;;;;;5025250;28;20197;-68
2023/11/16 16:05:51;;;;;;;12.40;6.47;;;;;;;;;;5027301;28;20202;-69
2023/11/16 16:08:17;;;;;;;9.73;6.28;;;;;;;;;;5031858;28;20276;-69
2023/11/16 16:10:43;;;;;;;15.37;6.53;;;;;;;;;;5024618;28;20372;-69
2023/11/16 16:13:09;;;;;;;13.83;6.77;;;;;;;;;;5032192;28;20197;-68
2023/11/16 16:15:35;;;;;;;14.23;6.97;;;;;;;;;;5026945;28;20255;-68
2023/11/16 16:18:00;;;;;;;11.23;6.83;;;;;;;;;;5043470;28;20323;-68
2023/11/16 16:20:25;;;;;;;13.77;6.90;;;;;;;;;;5041185;28;20193;-68
2023/11/16 16:22:51;;;;;;;16.63;7.87;;;;;;;;;;5030215;28;20247;-68
2023/11/16 16:25:16;;;;;;;14.23;7.60;;;;;;;;;;5013161;28;20297;-68
2023/11/16 16:27:42;;;;;;;11.80;7.13;;;;;;;;;;5018830;28;20268;-68
2023/11/16 16:30:09;;;;;;;23.53;7.97;;;;;;;;;;5020523;28;20214;-68
2023/11/16 16:32:35;;;;;;;12.80;6.47;;;;;;;;;;5028095;28;20718;-73
2023/11/16 16:35:02;;;;;;;14.87;8.03;;;;;;;;;;5035126;28;20216;-68
2023/11/16 16:37:27;;;;;;;14.80;7.97;;;;;;;;;;5025525;28;20199;-68
2023/11/16 16:39:53;;;;;;;12.47;7.27;;;;;;;;;;5024478;28;20247;-69
2023/11/16 16:42:18;;;;;;;10.63;7.37;;;;;;;;;;5032910;28;20661;-69
2023/11/16 16:44:44;;;;;;;15.70;7.30;;;;;;;;;;5035383;28;20268;-68
2023/11/16 16:47:12;;;;;;;13.03;7.27;;;;;;;;;;5034131;28;20213;-68
2023/11/16 16:49:37;;;;;;;10.53;7.00;;;;;;;;;;5026268;28;20183;-68